sensor_id;sensor_type;location;lat;lon;timestamp;temperature;humidity
23556;DHT22;11956;53.184;8.578;2022-11-06T00:01:22;10.30;99.90
23556;DHT22;11956;53.184;8.578;2022-11-06T00:04:23;10.30;99.90
23556;DHT22;11956;53.184;8.578;2022-11-06T00:07:24;10.20;99.90
23556;DHT22;11956;53.184;8.578;2022-11-06T00:10:25;10.20;99.90
23556;DHT22;11956;53.184;8.578;2022-11-06T00:13:26;10.20;99.90
23556;DHT22;11956;53.184;8.578;2022-11-06T00:16:27;10.20;99.90
23556;DHT22;11956;53.184;8.578;2022-11-06T00:19:28;10.10;99.90
23556;DHT22;11956;53.184;8.578;2022-11-06T00:22:32;10.10;99.90
23556;DHT22;11956;53.184;8.578;2022-11-06T00:25:33;10.10;99.90
23556;DHT22;11956;53.184;8.578;2022-11-06T00:28:35;10.10;99.90
23556;DHT22;11956;53.184;8.578;2022-11-06T00:31:36;10.10;99.90
23556;DHT22;11956;53.184;8.578;2022-11-06T00:34:37;10.20;99.90
23556;DHT22;11956;53.184;8.578;2022-11-06T00:37:38;10.10;99.90
23556;DHT22;11956;53.184;8.578;2022-11-06T00:40:39;10.10;99.90
23556;DHT22;11956;53.184;8.578;2022-11-06T00:43:40;10.10;99.90
23556;DHT22;11956;53.184;8.578;2022-11-06T00:46:41;10.10;99.90
23556;DHT22;11956;53.184;8.578;2022-11-06T00:49:42;10.10;99.90
23556;DHT22;11956;53.184;8.578;2022-11-06T00:52:43;10.10;99.90
23556;DHT22;11956;53.184;8.578;2022-11-06T00:55:44;10.00;99.90
23556;DHT22;11956;53.184;8.578;2022-11-06T00:58:46;10.00;99.90
23556;DHT22;11956;53.184;8.578;2022-11-06T01:01:47;9.90;99.90
23556;DHT22;11956;53.184;8.578;2022-11-06T01:04:48;9.90;99.90
23556;DHT22;11956;53.184;8.578;2022-11-06T01:07:49;10.00;99.90
23556;DHT22;11956;53.184;8.578;2022-11-06T01:10:49;10.00;99.90
23556;DHT22;11956;53.184;8.578;2022-11-06T01:13:53;10.00;99.90
23556;DHT22;11956;53.184;8.578;2022-11-06T01:16:55;10.00;99.90
23556;DHT22;11956;53.184;8.578;2022-11-06T01:19:56;10.00;99.90
23556;DHT22;11956;53.184;8.578;2022-11-06T01:22:57;10.10;99.90
23556;DHT22;11956;53.184;8.578;2022-11-06T01:26:02;10.20;99.90
23556;DHT22;11956;53.184;8.578;2022-11-06T01:29:06;10.10;99.90
23556;DHT22;11956;53.184;8.578;2022-11-06T01:32:08;10.20;99.90
23556;DHT22;11956;53.184;8.578;2022-11-06T01:35:09;10.20;99.90
23556;DHT22;11956;53.184;8.578;2022-11-06T01:38:10;10.30;99.90
23556;DHT22;11956;53.184;8.578;2022-11-06T01:41:20;10.30;99.90
23556;DHT22;11956;53.184;8.578;2022-11-06T01:47:35;10.30;99.90
23556;DHT22;11956;53.184;8.578;2022-11-06T01:50:36;10.30;99.90
23556;DHT22;11956;53.184;8.578;2022-11-06T01:53:38;10.40;99.90
23556;DHT22;11956;53.184;8.578;2022-11-06T01:56:40;10.40;99.90
23556;DHT22;11956;53.184;8.578;2022-11-06T01:59:44;10.40;99.90
23556;DHT22;11956;53.184;8.578;2022-11-06T02:02:45;10.50;99.90
23556;DHT22;11956;53.184;8.578;2022-11-06T02:05:47;10.50;99.90
23556;DHT22;11956;53.184;8.578;2022-11-06T02:08:47;10.50;99.90
23556;DHT22;11956;53.184;8.578;2022-11-06T02:12:17;10.40;99.90
23556;DHT22;11956;53.184;8.578;2022-11-06T02:23:31;10.50;99.90
23556;DHT22;11956;53.184;8.578;2022-11-06T02:33:08;10.40;99.90
23556;DHT22;11956;53.184;8.578;2022-11-06T02:36:17;10.40;99.90
23556;DHT22;11956;53.184;8.578;2022-11-06T02:39:21;10.40;99.90
23556;DHT22;11956;53.184;8.578;2022-11-06T02:42:26;10.40;99.90
23556;DHT22;11956;53.184;8.578;2022-11-06T02:45:28;10.40;99.90
23556;DHT22;11956;53.184;8.578;2022-11-06T02:48:36;10.40;99.90
23556;DHT22;11956;53.184;8.578;2022-11-06T02:51:44;10.40;99.90
23556;DHT22;11956;53.184;8.578;2022-11-06T02:55:04;10.50;99.90
23556;DHT22;11956;53.184;8.578;2022-11-06T02:58:22;10.50;99.90
23556;DHT22;11956;53.184;8.578;2022-11-06T03:01:33;10.50;99.90
23556;DHT22;11956;53.184;8.578;2022-11-06T03:04:45;10.50;99.90
23556;DHT22;11956;53.184;8.578;2022-11-06T03:07:54;10.50;99.90
23556;DHT22;11956;53.184;8.578;2022-11-06T03:11:16;10.50;99.90
23556;DHT22;11956;53.184;8.578;2022-11-06T03:14:43;10.50;99.90
23556;DHT22;11956;53.184;8.578;2022-11-06T03:18:11;10.50;99.90
23556;DHT22;11956;53.184;8.578;2022-11-06T03:21:29;10.50;99.90
23556;DHT22;11956;53.184;8.578;2022-11-06T03:27:49;10.60;99.90
23556;DHT22;11956;53.184;8.578;2022-11-06T03:30:58;10.50;99.90
23556;DHT22;11956;53.184;8.578;2022-11-06T03:34:09;10.50;99.90
23556;DHT22;11956;53.184;8.578;2022-11-06T03:37:19;10.50;99.90
23556;DHT22;11956;53.184;8.578;2022-11-06T03:40:26;10.40;99.90
23556;DHT22;11956;53.184;8.578;2022-11-06T03:43:33;10.40;99.90
23556;DHT22;11956;53.184;8.578;2022-11-06T03:46:39;10.40;99.90
23556;DHT22;11956;53.184;8.578;2022-11-06T03:50:14;10.40;99.90
23556;DHT22;11956;53.184;8.578;2022-11-06T03:53:27;10.40;99.90
23556;DHT22;11956;53.184;8.578;2022-11-06T03:57:09;10.30;99.90
23556;DHT22;11956;53.184;8.578;2022-11-06T04:00:13;10.30;99.90
23556;DHT22;11956;53.184;8.578;2022-11-06T04:03:24;10.10;99.90
23556;DHT22;11956;53.184;8.578;2022-11-06T04:06:39;10.10;99.90
23556;DHT22;11956;53.184;8.578;2022-11-06T04:09:50;10.10;99.90
23556;DHT22;11956;53.184;8.578;2022-11-06T04:13:11;10.10;99.90
23556;DHT22;11956;53.184;8.578;2022-11-06T04:16:35;10.20;99.90
23556;DHT22;11956;53.184;8.578;2022-11-06T04:19:49;10.20;99.90
23556;DHT22;11956;53.184;8.578;2022-11-06T04:23:28;10.30;99.90
23556;DHT22;11956;53.184;8.578;2022-11-06T04:26:38;10.30;99.90
23556;DHT22;11956;53.184;8.578;2022-11-06T04:30:10;10.30;99.90
23556;DHT22;11956;53.184;8.578;2022-11-06T04:33:24;10.30;99.90
23556;DHT22;11956;53.184;8.578;2022-11-06T04:36:56;10.30;99.90
23556;DHT22;11956;53.184;8.578;2022-11-06T04:40:19;10.20;99.90
23556;DHT22;11956;53.184;8.578;2022-11-06T04:43:39;10.10;99.90
23556;DHT22;11956;53.184;8.578;2022-11-06T04:46:55;9.90;99.90
23556;DHT22;11956;53.184;8.578;2022-11-06T04:49:59;9.80;99.90
23556;DHT22;11956;53.184;8.578;2022-11-06T04:53:01;9.60;99.90
23556;DHT22;11956;53.184;8.578;2022-11-06T04:56:09;9.50;99.90
23556;DHT22;11956;53.184;8.578;2022-11-06T04:59:15;9.50;99.90
23556;DHT22;11956;53.184;8.578;2022-11-06T05:02:16;9.50;99.90
23556;DHT22;11956;53.184;8.578;2022-11-06T05:05:17;9.50;99.90
23556;DHT22;11956;53.184;8.578;2022-11-06T05:08:19;9.60;99.90
23556;DHT22;11956;53.184;8.578;2022-11-06T05:11:20;9.60;99.90
23556;DHT22;11956;53.184;8.578;2022-11-06T05:14:21;9.70;99.90
23556;DHT22;11956;53.184;8.578;2022-11-06T05:17:22;9.70;99.90
23556;DHT22;11956;53.184;8.578;2022-11-06T05:20:23;9.80;99.90
23556;DHT22;11956;53.184;8.578;2022-11-06T05:23:24;9.80;99.90
23556;DHT22;11956;53.184;8.578;2022-11-06T05:26:25;9.90;99.90
23556;DHT22;11956;53.184;8.578;2022-11-06T05:29:26;9.90;99.90
23556;DHT22;11956;53.184;8.578;2022-11-06T05:32:26;9.90;99.90
23556;DHT22;11956;53.184;8.578;2022-11-06T05:35:27;9.90;99.90
23556;DHT22;11956;53.184;8.578;2022-11-06T05:38:28;9.80;99.90
23556;DHT22;11956;53.184;8.578;2022-11-06T05:41:30;9.70;99.90
23556;DHT22;11956;53.184;8.578;2022-11-06T05:44:30;9.60;99.90
23556;DHT22;11956;53.184;8.578;2022-11-06T05:47:31;9.60;99.90
23556;DHT22;11956;53.184;8.578;2022-11-06T05:50:32;9.60;99.90
23556;DHT22;11956;53.184;8.578;2022-11-06T05:53:37;9.60;99.90
23556;DHT22;11956;53.184;8.578;2022-11-06T05:56:38;9.70;99.90
23556;DHT22;11956;53.184;8.578;2022-11-06T05:59:39;9.70;99.90
23556;DHT22;11956;53.184;8.578;2022-11-06T06:02:40;9.70;99.90
23556;DHT22;11956;53.184;8.578;2022-11-06T06:05:40;9.70;99.90
23556;DHT22;11956;53.184;8.578;2022-11-06T06:08:41;9.60;99.90
23556;DHT22;11956;53.184;8.578;2022-11-06T06:11:42;9.40;99.90
23556;DHT22;11956;53.184;8.578;2022-11-06T06:14:43;9.30;99.90
23556;DHT22;11956;53.184;8.578;2022-11-06T06:17:44;9.30;99.90
23556;DHT22;11956;53.184;8.578;2022-11-06T06:20:45;9.30;99.90
23556;DHT22;11956;53.184;8.578;2022-11-06T06:23:46;9.20;99.90
23556;DHT22;11956;53.184;8.578;2022-11-06T06:26:47;9.20;99.90
23556;DHT22;11956;53.184;8.578;2022-11-06T06:29:48;9.20;99.90
23556;DHT22;11956;53.184;8.578;2022-11-06T06:32:50;9.20;99.90
23556;DHT22;11956;53.184;8.578;2022-11-06T06:35:51;9.30;99.90
23556;DHT22;11956;53.184;8.578;2022-11-06T06:38:52;9.30;99.90
23556;DHT22;11956;53.184;8.578;2022-11-06T06:41:54;9.40;99.90
23556;DHT22;11956;53.184;8.578;2022-11-06T06:44:54;9.50;99.90
23556;DHT22;11956;53.184;8.578;2022-11-06T06:48:01;9.60;99.90
23556;DHT22;11956;53.184;8.578;2022-11-06T06:51:03;9.70;99.90
23556;DHT22;11956;53.184;8.578;2022-11-06T06:54:04;9.80;99.90
23556;DHT22;11956;53.184;8.578;2022-11-06T06:57:08;9.80;99.90
23556;DHT22;11956;53.184;8.578;2022-11-06T07:00:09;9.90;99.90
23556;DHT22;11956;53.184;8.578;2022-11-06T07:03:10;9.90;99.90
23556;DHT22;11956;53.184;8.578;2022-11-06T07:06:11;10.00;99.90
23556;DHT22;11956;53.184;8.578;2022-11-06T07:09:12;10.00;99.90
23556;DHT22;11956;53.184;8.578;2022-11-06T07:12:12;10.10;99.90
23556;DHT22;11956;53.184;8.578;2022-11-06T07:15:14;10.10;99.90
23556;DHT22;11956;53.184;8.578;2022-11-06T07:18:15;10.20;99.90
23556;DHT22;11956;53.184;8.578;2022-11-06T07:21:15;10.30;99.90
23556;DHT22;11956;53.184;8.578;2022-11-06T07:24:16;10.30;99.90
23556;DHT22;11956;53.184;8.578;2022-11-06T07:27:17;10.40;99.90
23556;DHT22;11956;53.184;8.578;2022-11-06T07:30:18;10.30;99.90
23556;DHT22;11956;53.184;8.578;2022-11-06T07:33:19;10.40;99.90
23556;DHT22;11956;53.184;8.578;2022-11-06T07:36:20;10.20;99.90
23556;DHT22;11956;53.184;8.578;2022-11-06T07:39:20;10.00;99.90
23556;DHT22;11956;53.184;8.578;2022-11-06T07:42:21;10.00;99.90
23556;DHT22;11956;53.184;8.578;2022-11-06T07:45:37;10.00;99.90
23556;DHT22;11956;53.184;8.578;2022-11-06T07:48:38;10.10;99.90
23556;DHT22;11956;53.184;8.578;2022-11-06T07:51:39;10.30;99.90
23556;DHT22;11956;53.184;8.578;2022-11-06T07:54:40;10.40;99.90
23556;DHT22;11956;53.184;8.578;2022-11-06T07:57:40;10.50;99.90
23556;DHT22;11956;53.184;8.578;2022-11-06T08:00:49;10.50;99.90
23556;DHT22;11956;53.184;8.578;2022-11-06T08:03:50;10.60;99.90
23556;DHT22;11956;53.184;8.578;2022-11-06T08:06:51;10.60;99.90
23556;DHT22;11956;53.184;8.578;2022-11-06T08:09:52;10.70;99.90
23556;DHT22;11956;53.184;8.578;2022-11-06T08:12:53;10.90;99.90
23556;DHT22;11956;53.184;8.578;2022-11-06T08:15:54;11.10;99.90
23556;DHT22;11956;53.184;8.578;2022-11-06T08:18:55;11.30;99.90
23556;DHT22;11956;53.184;8.578;2022-11-06T08:21:56;11.70;99.90
23556;DHT22;11956;53.184;8.578;2022-11-06T08:24:57;12.10;99.90
23556;DHT22;11956;53.184;8.578;2022-11-06T08:27:58;12.40;99.90
23556;DHT22;11956;53.184;8.578;2022-11-06T08:31:04;12.50;99.90
23556;DHT22;11956;53.184;8.578;2022-11-06T08:34:06;12.30;99.90
23556;DHT22;11956;53.184;8.578;2022-11-06T08:37:09;12.10;99.90
23556;DHT22;11956;53.184;8.578;2022-11-06T08:40:10;11.80;99.90
23556;DHT22;11956;53.184;8.578;2022-11-06T08:43:11;11.80;99.90
23556;DHT22;11956;53.184;8.578;2022-11-06T08:46:13;11.70;99.90
23556;DHT22;11956;53.184;8.578;2022-11-06T08:49:14;11.70;99.90
23556;DHT22;11956;53.184;8.578;2022-11-06T08:52:15;11.70;99.90
23556;DHT22;11956;53.184;8.578;2022-11-06T08:55:16;11.70;99.90
23556;DHT22;11956;53.184;8.578;2022-11-06T08:58:17;11.80;99.90
23556;DHT22;11956;53.184;8.578;2022-11-06T09:01:18;11.80;99.90
23556;DHT22;11956;53.184;8.578;2022-11-06T09:04:19;11.80;99.90
23556;DHT22;11956;53.184;8.578;2022-11-06T09:07:21;11.80;99.90
23556;DHT22;11956;53.184;8.578;2022-11-06T09:10:23;11.90;99.90
23556;DHT22;11956;53.184;8.578;2022-11-06T09:13:24;12.00;99.90
23556;DHT22;11956;53.184;8.578;2022-11-06T09:16:25;12.00;99.90
23556;DHT22;11956;53.184;8.578;2022-11-06T09:19:26;12.10;99.90
23556;DHT22;11956;53.184;8.578;2022-11-06T09:22:27;12.10;99.90
23556;DHT22;11956;53.184;8.578;2022-11-06T09:25:29;12.20;99.90
23556;DHT22;11956;53.184;8.578;2022-11-06T09:28:30;12.40;99.90
23556;DHT22;11956;53.184;8.578;2022-11-06T09:31:31;13.00;99.90
23556;DHT22;11956;53.184;8.578;2022-11-06T09:34:32;14.80;99.90
23556;DHT22;11956;53.184;8.578;2022-11-06T09:37:33;16.00;99.90
23556;DHT22;11956;53.184;8.578;2022-11-06T09:40:37;16.40;99.90
23556;DHT22;11956;53.184;8.578;2022-11-06T09:47:22;14.70;99.90
23556;DHT22;11956;53.184;8.578;2022-11-06T09:50:29;14.00;99.90
23556;DHT22;11956;53.184;8.578;2022-11-06T09:53:38;13.60;99.90
23556;DHT22;11956;53.184;8.578;2022-11-06T09:56:41;13.40;99.90
23556;DHT22;11956;53.184;8.578;2022-11-06T09:59:43;13.20;99.90
23556;DHT22;11956;53.184;8.578;2022-11-06T10:02:54;13.10;99.90
23556;DHT22;11956;53.184;8.578;2022-11-06T10:05:59;13.10;99.90
23556;DHT22;11956;53.184;8.578;2022-11-06T10:09:02;12.90;99.90
23556;DHT22;11956;53.184;8.578;2022-11-06T10:12:14;12.80;99.90
23556;DHT22;11956;53.184;8.578;2022-11-06T10:15:22;12.80;99.90
23556;DHT22;11956;53.184;8.578;2022-11-06T10:21:48;12.90;99.90
23556;DHT22;11956;53.184;8.578;2022-11-06T10:25:44;12.90;99.90
23556;DHT22;11956;53.184;8.578;2022-11-06T10:36:13;13.20;99.90
23556;DHT22;11956;53.184;8.578;2022-11-06T10:39:27;13.20;99.90
23556;DHT22;11956;53.184;8.578;2022-11-06T10:42:35;13.20;99.90
23556;DHT22;11956;53.184;8.578;2022-11-06T10:45:40;13.30;99.90
23556;DHT22;11956;53.184;8.578;2022-11-06T10:48:45;13.40;99.90
23556;DHT22;11956;53.184;8.578;2022-11-06T10:58:39;13.40;99.90
23556;DHT22;11956;53.184;8.578;2022-11-06T11:01:40;13.50;99.90
23556;DHT22;11956;53.184;8.578;2022-11-06T11:04:41;13.50;99.90
23556;DHT22;11956;53.184;8.578;2022-11-06T11:07:45;13.60;99.90
23556;DHT22;11956;53.184;8.578;2022-11-06T11:10:47;13.40;99.90
23556;DHT22;11956;53.184;8.578;2022-11-06T11:17:00;13.60;99.90
23556;DHT22;11956;53.184;8.578;2022-11-06T11:20:30;13.50;99.90
23556;DHT22;11956;53.184;8.578;2022-11-06T11:23:31;13.60;99.90
23556;DHT22;11956;53.184;8.578;2022-11-06T11:26:37;13.70;99.90
23556;DHT22;11956;53.184;8.578;2022-11-06T11:29:46;13.90;99.90
23556;DHT22;11956;53.184;8.578;2022-11-06T11:32:50;14.10;99.90
23556;DHT22;11956;53.184;8.578;2022-11-06T11:35:52;14.10;99.90
23556;DHT22;11956;53.184;8.578;2022-11-06T11:38:54;14.10;99.90
23556;DHT22;11956;53.184;8.578;2022-11-06T11:42:24;14.10;99.90
23556;DHT22;11956;53.184;8.578;2022-11-06T11:45:26;13.90;99.90
23556;DHT22;11956;53.184;8.578;2022-11-06T11:48:26;14.00;99.90
23556;DHT22;11956;53.184;8.578;2022-11-06T11:51:53;14.00;99.90
23556;DHT22;11956;53.184;8.578;2022-11-06T11:54:54;14.00;99.90
23556;DHT22;11956;53.184;8.578;2022-11-06T11:57:58;13.90;99.90
23556;DHT22;11956;53.184;8.578;2022-11-06T12:01:02;14.10;99.90
23556;DHT22;11956;53.184;8.578;2022-11-06T12:04:23;14.20;99.90
23556;DHT22;11956;53.184;8.578;2022-11-06T12:07:31;14.20;99.90
23556;DHT22;11956;53.184;8.578;2022-11-06T12:10:37;14.10;99.90
23556;DHT22;11956;53.184;8.578;2022-11-06T12:13:40;13.90;99.90
23556;DHT22;11956;53.184;8.578;2022-11-06T12:16:42;13.80;99.90
23556;DHT22;11956;53.184;8.578;2022-11-06T12:19:56;13.70;99.90
23556;DHT22;11956;53.184;8.578;2022-11-06T12:22:59;13.60;99.90
23556;DHT22;11956;53.184;8.578;2022-11-06T12:26:06;13.60;99.90
23556;DHT22;11956;53.184;8.578;2022-11-06T12:29:18;13.60;99.90
23556;DHT22;11956;53.184;8.578;2022-11-06T12:36:07;13.60;99.90
23556;DHT22;11956;53.184;8.578;2022-11-06T12:39:14;13.60;99.90
23556;DHT22;11956;53.184;8.578;2022-11-06T12:42:19;13.60;99.90
23556;DHT22;11956;53.184;8.578;2022-11-06T12:45:32;13.60;99.90
23556;DHT22;11956;53.184;8.578;2022-11-06T12:55:47;13.70;99.90
23556;DHT22;11956;53.184;8.578;2022-11-06T12:59:53;13.60;99.90
23556;DHT22;11956;53.184;8.578;2022-11-06T13:02:39;13.70;99.90
23556;DHT22;11956;53.184;8.578;2022-11-06T13:06:06;13.70;99.90
23556;DHT22;11956;53.184;8.578;2022-11-06T13:12:30;13.60;99.90
23556;DHT22;11956;53.184;8.578;2022-11-06T13:15:51;13.70;99.90
23556;DHT22;11956;53.184;8.578;2022-11-06T13:19:14;13.70;99.90
23556;DHT22;11956;53.184;8.578;2022-11-06T13:26:27;13.60;99.90
23556;DHT22;11956;53.184;8.578;2022-11-06T13:29:35;13.40;99.90
23556;DHT22;11956;53.184;8.578;2022-11-06T13:32:38;13.50;99.90
23556;DHT22;11956;53.184;8.578;2022-11-06T13:35:42;13.50;99.90
23556;DHT22;11956;53.184;8.578;2022-11-06T13:38:48;13.40;99.90
23556;DHT22;11956;53.184;8.578;2022-11-06T13:41:52;13.30;99.90
23556;DHT22;11956;53.184;8.578;2022-11-06T13:44:56;13.40;99.90
23556;DHT22;11956;53.184;8.578;2022-11-06T13:48:19;13.30;99.90
23556;DHT22;11956;53.184;8.578;2022-11-06T13:51:45;13.30;99.90
23556;DHT22;11956;53.184;8.578;2022-11-06T13:55:16;13.40;99.90
23556;DHT22;11956;53.184;8.578;2022-11-06T14:05:58;13.60;99.90
23556;DHT22;11956;53.184;8.578;2022-11-06T14:09:28;13.60;99.90
23556;DHT22;11956;53.184;8.578;2022-11-06T14:12:31;13.50;99.90
23556;DHT22;11956;53.184;8.578;2022-11-06T14:15:38;13.30;99.90
23556;DHT22;11956;53.184;8.578;2022-11-06T14:18:41;13.30;99.90
23556;DHT22;11956;53.184;8.578;2022-11-06T14:21:45;13.20;99.90
23556;DHT22;11956;53.184;8.578;2022-11-06T14:24:47;13.20;99.90
23556;DHT22;11956;53.184;8.578;2022-11-06T14:30:48;13.00;99.90
23556;DHT22;11956;53.184;8.578;2022-11-06T14:36:50;12.70;99.90
23556;DHT22;11956;53.184;8.578;2022-11-06T14:42:55;12.80;99.90
23556;DHT22;11956;53.184;8.578;2022-11-06T14:46:05;12.70;99.90
23556;DHT22;11956;53.184;8.578;2022-11-06T14:49:18;12.80;99.90
23556;DHT22;11956;53.184;8.578;2022-11-06T14:52:25;12.70;99.90
23556;DHT22;11956;53.184;8.578;2022-11-06T14:58:49;12.60;99.90
23556;DHT22;11956;53.184;8.578;2022-11-06T15:01:59;12.50;99.90
23556;DHT22;11956;53.184;8.578;2022-11-06T15:05:07;12.50;99.90
23556;DHT22;11956;53.184;8.578;2022-11-06T15:15:04;12.40;99.90
23556;DHT22;11956;53.184;8.578;2022-11-06T15:18:15;12.40;99.90
23556;DHT22;11956;53.184;8.578;2022-11-06T15:21:30;12.40;99.90
23556;DHT22;11956;53.184;8.578;2022-11-06T15:24:41;12.40;99.90
23556;DHT22;11956;53.184;8.578;2022-11-06T15:27:46;12.30;99.90
23556;DHT22;11956;53.184;8.578;2022-11-06T15:31:13;12.30;99.90
23556;DHT22;11956;53.184;8.578;2022-11-06T15:34:33;12.20;99.90
23556;DHT22;11956;53.184;8.578;2022-11-06T15:37:49;12.20;99.90
23556;DHT22;11956;53.184;8.578;2022-11-06T15:40:53;12.20;99.90
23556;DHT22;11956;53.184;8.578;2022-11-06T15:43:54;12.10;99.90
23556;DHT22;11956;53.184;8.578;2022-11-06T15:46:57;12.10;99.90
23556;DHT22;11956;53.184;8.578;2022-11-06T15:50:20;12.00;99.90
23556;DHT22;11956;53.184;8.578;2022-11-06T15:53:26;12.00;99.90
23556;DHT22;11956;53.184;8.578;2022-11-06T15:56:31;12.10;99.90
23556;DHT22;11956;53.184;8.578;2022-11-06T15:59:33;12.10;99.90
23556;DHT22;11956;53.184;8.578;2022-11-06T16:02:46;12.10;99.90
23556;DHT22;11956;53.184;8.578;2022-11-06T16:05:48;12.00;99.90
23556;DHT22;11956;53.184;8.578;2022-11-06T16:08:50;11.90;99.90
23556;DHT22;11956;53.184;8.578;2022-11-06T16:11:51;11.80;99.90
23556;DHT22;11956;53.184;8.578;2022-11-06T16:14:53;11.80;99.90
23556;DHT22;11956;53.184;8.578;2022-11-06T16:18:03;11.70;99.90
23556;DHT22;11956;53.184;8.578;2022-11-06T16:21:19;11.70;99.90
23556;DHT22;11956;53.184;8.578;2022-11-06T16:24:21;11.70;99.90
23556;DHT22;11956;53.184;8.578;2022-11-06T16:27:23;11.70;99.90
23556;DHT22;11956;53.184;8.578;2022-11-06T16:30:25;11.70;99.90
23556;DHT22;11956;53.184;8.578;2022-11-06T16:33:26;11.60;99.90
23556;DHT22;11956;53.184;8.578;2022-11-06T16:36:29;11.60;99.90
23556;DHT22;11956;53.184;8.578;2022-11-06T16:39:44;11.50;99.90
23556;DHT22;11956;53.184;8.578;2022-11-06T16:42:59;11.40;99.90
23556;DHT22;11956;53.184;8.578;2022-11-06T16:46:04;11.40;99.90
23556;DHT22;11956;53.184;8.578;2022-11-06T16:49:33;11.40;99.90
23556;DHT22;11956;53.184;8.578;2022-11-06T16:52:36;11.40;99.90
23556;DHT22;11956;53.184;8.578;2022-11-06T16:55:38;11.30;99.90
23556;DHT22;11956;53.184;8.578;2022-11-06T17:02:27;11.30;99.90
23556;DHT22;11956;53.184;8.578;2022-11-06T17:05:35;11.30;99.90
23556;DHT22;11956;53.184;8.578;2022-11-06T17:08:39;11.30;99.90
23556;DHT22;11956;53.184;8.578;2022-11-06T17:11:40;11.30;99.90
23556;DHT22;11956;53.184;8.578;2022-11-06T17:14:44;11.20;99.90
23556;DHT22;11956;53.184;8.578;2022-11-06T17:17:48;11.30;99.90
23556;DHT22;11956;53.184;8.578;2022-11-06T17:20:53;11.30;99.90
23556;DHT22;11956;53.184;8.578;2022-11-06T17:23:55;11.10;99.90
23556;DHT22;11956;53.184;8.578;2022-11-06T17:26:55;11.20;99.90
23556;DHT22;11956;53.184;8.578;2022-11-06T17:29:56;11.10;99.90
23556;DHT22;11956;53.184;8.578;2022-11-06T17:32:57;11.10;99.90
23556;DHT22;11956;53.184;8.578;2022-11-06T17:35:58;11.20;99.90
23556;DHT22;11956;53.184;8.578;2022-11-06T17:38:59;11.20;99.90
23556;DHT22;11956;53.184;8.578;2022-11-06T17:42:00;11.20;99.90
23556;DHT22;11956;53.184;8.578;2022-11-06T17:45:00;11.20;99.90
23556;DHT22;11956;53.184;8.578;2022-11-06T17:48:01;11.20;99.90
23556;DHT22;11956;53.184;8.578;2022-11-06T17:51:02;11.20;99.90
23556;DHT22;11956;53.184;8.578;2022-11-06T17:54:23;11.20;99.90
23556;DHT22;11956;53.184;8.578;2022-11-06T17:57:25;11.20;99.90
23556;DHT22;11956;53.184;8.578;2022-11-06T18:00:26;11.20;99.90
23556;DHT22;11956;53.184;8.578;2022-11-06T18:03:27;11.20;99.90
23556;DHT22;11956;53.184;8.578;2022-11-06T18:06:28;11.30;99.90
23556;DHT22;11956;53.184;8.578;2022-11-06T18:09:29;11.20;99.90
23556;DHT22;11956;53.184;8.578;2022-11-06T18:12:29;11.20;99.90
23556;DHT22;11956;53.184;8.578;2022-11-06T18:15:35;11.20;99.90
23556;DHT22;11956;53.184;8.578;2022-11-06T18:18:36;11.20;99.90
23556;DHT22;11956;53.184;8.578;2022-11-06T18:21:37;11.20;99.90
23556;DHT22;11956;53.184;8.578;2022-11-06T18:24:38;11.20;99.90
23556;DHT22;11956;53.184;8.578;2022-11-06T18:27:40;11.30;99.90
23556;DHT22;11956;53.184;8.578;2022-11-06T18:30:41;11.30;99.90
23556;DHT22;11956;53.184;8.578;2022-11-06T18:33:41;11.30;99.90
23556;DHT22;11956;53.184;8.578;2022-11-06T18:36:42;11.30;99.90
23556;DHT22;11956;53.184;8.578;2022-11-06T18:39:43;11.40;99.90
23556;DHT22;11956;53.184;8.578;2022-11-06T18:42:44;11.40;99.90
23556;DHT22;11956;53.184;8.578;2022-11-06T18:45:45;11.50;99.90
23556;DHT22;11956;53.184;8.578;2022-11-06T18:48:46;11.50;99.90
23556;DHT22;11956;53.184;8.578;2022-11-06T18:51:46;11.50;99.90
23556;DHT22;11956;53.184;8.578;2022-11-06T18:54:47;11.60;99.90
23556;DHT22;11956;53.184;8.578;2022-11-06T18:57:48;11.60;99.90
23556;DHT22;11956;53.184;8.578;2022-11-06T19:00:49;11.60;99.90
23556;DHT22;11956;53.184;8.578;2022-11-06T19:03:50;11.60;99.90
23556;DHT22;11956;53.184;8.578;2022-11-06T19:06:51;11.60;99.90
23556;DHT22;11956;53.184;8.578;2022-11-06T19:09:52;11.40;99.90
23556;DHT22;11956;53.184;8.578;2022-11-06T19:12:53;11.10;99.90
23556;DHT22;11956;53.184;8.578;2022-11-06T19:15:57;10.90;99.90
23556;DHT22;11956;53.184;8.578;2022-11-06T19:19:01;10.70;99.90
23556;DHT22;11956;53.184;8.578;2022-11-06T19:22:04;10.60;99.90
23556;DHT22;11956;53.184;8.578;2022-11-06T19:25:05;10.50;99.90
23556;DHT22;11956;53.184;8.578;2022-11-06T19:28:08;10.40;99.90
23556;DHT22;11956;53.184;8.578;2022-11-06T19:31:09;10.20;99.90
23556;DHT22;11956;53.184;8.578;2022-11-06T19:34:13;10.10;99.90
23556;DHT22;11956;53.184;8.578;2022-11-06T19:37:14;10.00;99.90
23556;DHT22;11956;53.184;8.578;2022-11-06T19:40:15;9.90;99.90
23556;DHT22;11956;53.184;8.578;2022-11-06T19:43:16;9.70;99.90
23556;DHT22;11956;53.184;8.578;2022-11-06T19:46:17;9.60;99.90
23556;DHT22;11956;53.184;8.578;2022-11-06T19:49:18;9.50;99.90
23556;DHT22;11956;53.184;8.578;2022-11-06T19:52:19;9.40;99.90
23556;DHT22;11956;53.184;8.578;2022-11-06T19:55:19;9.30;99.90
23556;DHT22;11956;53.184;8.578;2022-11-06T19:58:21;9.20;99.90
23556;DHT22;11956;53.184;8.578;2022-11-06T20:01:22;9.10;99.90
23556;DHT22;11956;53.184;8.578;2022-11-06T20:04:23;9.00;99.90
23556;DHT22;11956;53.184;8.578;2022-11-06T20:07:24;8.90;99.90
23556;DHT22;11956;53.184;8.578;2022-11-06T20:10:26;8.90;99.90
23556;DHT22;11956;53.184;8.578;2022-11-06T20:13:26;8.80;99.90
23556;DHT22;11956;53.184;8.578;2022-11-06T20:16:27;8.70;99.90
23556;DHT22;11956;53.184;8.578;2022-11-06T20:19:28;8.70;99.90
23556;DHT22;11956;53.184;8.578;2022-11-06T20:22:29;8.60;99.90
23556;DHT22;11956;53.184;8.578;2022-11-06T20:25:30;8.60;99.90
23556;DHT22;11956;53.184;8.578;2022-11-06T20:28:31;8.60;99.90
23556;DHT22;11956;53.184;8.578;2022-11-06T20:31:32;8.60;99.90
23556;DHT22;11956;53.184;8.578;2022-11-06T20:34:33;8.60;99.90
23556;DHT22;11956;53.184;8.578;2022-11-06T20:37:34;8.60;99.90
23556;DHT22;11956;53.184;8.578;2022-11-06T20:40:35;8.60;99.90
23556;DHT22;11956;53.184;8.578;2022-11-06T20:43:36;8.60;99.90
23556;DHT22;11956;53.184;8.578;2022-11-06T20:46:36;8.60;99.90
23556;DHT22;11956;53.184;8.578;2022-11-06T20:49:38;8.70;99.90
23556;DHT22;11956;53.184;8.578;2022-11-06T20:52:39;8.70;99.90
23556;DHT22;11956;53.184;8.578;2022-11-06T20:55:40;8.80;99.90
23556;DHT22;11956;53.184;8.578;2022-11-06T20:58:42;8.80;99.90
23556;DHT22;11956;53.184;8.578;2022-11-06T21:01:43;8.80;99.90
23556;DHT22;11956;53.184;8.578;2022-11-06T21:04:44;8.90;99.90
23556;DHT22;11956;53.184;8.578;2022-11-06T21:07:45;9.00;99.90
23556;DHT22;11956;53.184;8.578;2022-11-06T21:11:07;9.00;99.90